Time;durP1;ratioP1;P1;durP2;ratioP2;P2;SDS_P1;SDS_P2;PMS_P1;PMS_P2;Temp;Humidity;BMP_temperature;BMP_pressure;BME280_temperature;BME280_humidity;BME280_pressure;Samples;Min_cycle;Max_cycle;Signal;HPM_P1;HPM_P2
2021/06/29 00:00:05;;;;;;;4.20;1.40;;;;;;;;;;413007;23;67833;-76
2021/06/29 00:00:20;;;;;;;3.08;1.23;;;;;;;;;;410408;23;137848;-76
2021/06/29 00:00:32;;;;;;;3.20;1.20;;;;;;;;;;413814;23;44921;-75
2021/06/29 00:00:44;;;;;;;3.00;1.20;;;;;;;;;;412878;23;69936;-76
2021/06/29 00:00:57;;;;;;;1.95;1.00;;;;;;;;;;414073;23;45842;-74
2021/06/29 00:01:09;;;;;;;1.94;1.18;;;;;;;;;;414053;23;47147;-74
2021/06/29 00:01:21;;;;;;;2.28;1.10;;;;;;;;;;414339;23;46552;-75
2021/06/29 00:01:34;;;;;;;3.33;1.00;;;;;;;;;;413938;23;46068;-73
2021/06/29 00:01:48;;;;;;;3.67;1.00;;;;;;;;;;414159;23;46443;-75
2021/06/29 00:02:00;;;;;;;2.78;1.02;;;;;;;;;;412367;23;92144;-76
2021/06/29 00:02:13;;;;;;;2.47;1.17;;;;;;;;;;413190;23;70026;-75
2021/06/29 00:02:25;;;;;;;2.97;1.10;;;;;;;;;;414040;23;45450;-75
2021/06/29 00:02:38;;;;;;;3.25;1.13;;;;;;;;;;413389;23;67777;-76
2021/06/29 00:03:01;;;;;;;3.03;1.10;;;;;;;;;;414190;23;44971;-75
2021/06/29 00:03:16;;;;;;;2.70;1.17;;;;;;;;;;410320;23;137542;-76
2021/06/29 00:03:28;;;;;;;2.67;1.10;;;;;;;;;;411084;23;116022;-75
2021/06/29 00:03:40;;;;;;;2.60;1.10;;;;;;;;;;413467;23;70020;-75
2021/06/29 00:03:52;;;;;;;2.42;1.10;;;;;;;;;;414121;23;45974;-75
2021/06/29 00:04:05;;;;;;;3.45;1.10;;;;;;;;;;414297;23;46580;-75
2021/06/29 00:04:17;;;;;;;3.28;1.10;;;;;;;;;;413052;23;68764;-76
2021/06/29 00:04:31;;;;;;;2.38;1.30;;;;;;;;;;412317;23;91992;-74
2021/06/29 00:04:46;;;;;;;2.90;1.27;;;;;;;;;;414167;23;46096;-75
2021/06/29 00:04:58;;;;;;;2.78;1.08;;;;;;;;;;412336;23;92081;-72
2021/06/29 00:05:11;;;;;;;2.10;1.20;;;;;;;;;;413128;23;69958;-75
2021/06/29 00:05:23;;;;;;;2.63;1.30;;;;;;;;;;414177;23;46575;-75
2021/06/29 00:05:37;;;;;;;3.15;1.30;;;;;;;;;;413228;23;68852;-76
2021/06/29 00:05:50;;;;;;;2.85;1.20;;;;;;;;;;412281;23;92014;-77
2021/06/29 00:06:02;;;;;;;2.75;1.10;;;;;;;;;;414139;23;46636;-75
2021/06/29 00:06:14;;;;;;;2.06;1.10;;;;;;;;;;414153;23;45642;-73
2021/06/29 00:06:26;;;;;;;2.05;1.20;;;;;;;;;;413999;23;45405;-73
2021/06/29 00:06:39;;;;;;;3.15;1.23;;;;;;;;;;414001;23;47163;-75
2021/06/29 00:06:51;;;;;;;3.08;1.10;;;;;;;;;;414162;23;45429;-75
2021/06/29 00:07:04;;;;;;;4.10;1.20;;;;;;;;;;413984;23;46334;-74
2021/06/29 00:07:16;;;;;;;4.14;1.14;;;;;;;;;;414034;23;46634;-76
2021/06/29 00:07:28;;;;;;;3.53;1.20;;;;;;;;;;413966;23;46519;-75
2021/06/29 00:07:40;;;;;;;3.45;1.30;;;;;;;;;;414217;23;46025;-74
2021/06/29 00:07:53;;;;;;;3.33;1.27;;;;;;;;;;413574;23;68855;-76
2021/06/29 00:08:08;;;;;;;2.42;1.10;;;;;;;;;;414274;23;46106;-75
2021/06/29 00:08:20;;;;;;;2.75;1.20;;;;;;;;;;410363;23;137986;-74
2021/06/29 00:08:33;;;;;;;2.80;1.30;;;;;;;;;;413093;23;67815;-76
2021/06/29 00:09:05;;;;;;;3.78;1.50;;;;;;;;;;409961;23;138350;-75
2021/06/29 00:09:17;;;;;;;3.78;1.40;;;;;;;;;;413937;23;46004;-75
2021/06/29 00:09:29;;;;;;;3.53;1.23;;;;;;;;;;412887;23;70048;-75
2021/06/29 00:09:42;;;;;;;2.78;1.25;;;;;;;;;;413884;23;46107;-75
2021/06/29 00:09:54;;;;;;;2.54;1.36;;;;;;;;;;413793;23;45484;-76
2021/06/29 00:10:07;;;;;;;2.90;1.25;;;;;;;;;;413803;23;46031;-75
2021/06/29 00:10:19;;;;;;;3.25;1.20;;;;;;;;;;413267;23;70118;-76
2021/06/29 00:10:32;;;;;;;3.00;1.20;;;;;;;;;;414076;23;45789;-76
2021/06/29 00:10:44;;;;;;;2.58;1.42;;;;;;;;;;413094;23;67904;-75
2021/06/29 00:10:57;;;;;;;3.20;1.40;;;;;;;;;;413309;23;69052;-75
2021/06/29 00:11:09;;;;;;;3.45;1.35;;;;;;;;;;414120;23;46032;-76
2021/06/29 00:11:22;;;;;;;3.28;1.40;;;;;;;;;;414234;23;45708;-76
2021/06/29 00:11:34;;;;;;;3.25;1.42;;;;;;;;;;413251;23;69936;-75
2021/06/29 00:11:46;;;;;;;3.28;1.45;;;;;;;;;;413085;23;68757;-75
2021/06/29 00:11:59;;;;;;;3.22;1.20;;;;;;;;;;414073;23;45632;-76
2021/06/29 00:12:12;;;;;;;3.30;1.30;;;;;;;;;;412831;23;70333;-76
2021/06/29 00:12:24;;;;;;;3.20;1.40;;;;;;;;;;414082;23;45319;-76
2021/06/29 00:12:36;;;;;;;2.55;1.40;;;;;;;;;;413316;23;68533;-75
2021/06/29 00:12:49;;;;;;;5.07;1.60;;;;;;;;;;414085;23;46764;-76
2021/06/29 00:13:04;;;;;;;5.13;1.70;;;;;;;;;;413090;23;68861;-77
2021/06/29 00:13:20;;;;;;;3.72;1.50;;;;;;;;;;411375;23;114926;-75
2021/06/29 00:13:32;;;;;;;4.10;1.60;;;;;;;;;;410524;23;137557;-74
2021/06/29 00:13:45;;;;;;;3.40;1.60;;;;;;;;;;414140;23;45999;-75
2021/06/29 00:13:57;;;;;;;2.92;1.33;;;;;;;;;;412961;23;68986;-76
2021/06/29 00:14:09;;;;;;;3.08;1.30;;;;;;;;;;413752;23;46555;-75
2021/06/29 00:14:22;;;;;;;2.72;1.17;;;;;;;;;;412970;23;68913;-75
2021/06/29 00:14:37;;;;;;;2.20;1.20;;;;;;;;;;411922;23;91934;-75
2021/06/29 00:14:49;;;;;;;3.03;1.23;;;;;;;;;;412936;23;68994;-76
2021/06/29 00:15:02;;;;;;;2.70;1.27;;;;;;;;;;412863;23;68926;-76
2021/06/29 00:15:14;;;;;;;1.45;1.13;;;;;;;;;;413997;23;45311;-74
2021/06/29 00:15:27;;;;;;;1.38;1.10;;;;;;;;;;411275;23;68895;-76
2021/06/29 00:15:40;;;;;;;1.88;1.08;;;;;;;;;;410985;23;68939;-75
2021/06/29 00:15:52;;;;;;;3.60;1.10;;;;;;;;;;412020;23;45951;-76
2021/06/29 00:16:04;;;;;;;4.38;1.15;;;;;;;;;;411425;23;69035;-74
2021/06/29 00:16:17;;;;;;;4.30;1.20;;;;;;;;;;410197;24;47091;-74
2021/06/29 00:16:29;;;;;;;2.33;1.10;;;;;;;;;;407198;24;68983;-77
2021/06/29 00:16:42;;;;;;;1.92;1.10;;;;;;;;;;408295;24;45964;-76
2021/06/29 00:16:54;;;;;;;4.40;1.20;;;;;;;;;;407290;24;68972;-76
2021/06/29 00:17:09;;;;;;;4.65;1.17;;;;;;;;;;409018;24;69101;-75
2021/06/29 00:17:22;;;;;;;2.28;1.02;;;;;;;;;;407216;24;115923;-75
2021/06/29 00:17:34;;;;;;;3.00;1.23;;;;;;;;;;411987;23;46198;-75
2021/06/29 00:17:46;;;;;;;3.15;1.30;;;;;;;;;;411193;23;68910;-76
2021/06/29 00:17:59;;;;;;;2.30;1.10;;;;;;;;;;412032;23;46139;-76
2021/06/29 00:18:12;;;;;;;2.50;1.20;;;;;;;;;;412923;23;69014;-75
2021/06/29 00:18:24;;;;;;;3.58;1.23;;;;;;;;;;414031;23;44999;-76
2021/06/29 00:18:36;;;;;;;3.30;1.15;;;;;;;;;;413331;23;70219;-76
2021/06/29 00:18:50;;;;;;;2.10;1.10;;;;;;;;;;411179;23;69024;-74
2021/06/29 00:19:02;;;;;;;2.17;1.10;;;;;;;;;;411916;23;45423;-73
2021/06/29 00:19:15;;;;;;;1.98;1.02;;;;;;;;;;410919;23;67907;-73
2021/06/29 00:19:27;;;;;;;1.80;1.00;;;;;;;;;;411112;23;70718;-73
2021/06/29 00:19:39;;;;;;;1.75;1.00;;;;;;;;;;411920;23;46450;-76
2021/06/29 00:19:52;;;;;;;2.10;1.02;;;;;;;;;;412005;23;44762;-76
2021/06/29 00:20:04;;;;;;;2.53;1.00;;;;;;;;;;411126;23;67793;-76
2021/06/29 00:20:17;;;;;;;3.78;1.05;;;;;;;;;;412827;23;68875;-74
2021/06/29 00:20:29;;;;;;;4.35;1.13;;;;;;;;;;413962;23;46648;-76
2021/06/29 00:20:42;;;;;;;3.45;1.20;;;;;;;;;;412847;23;68784;-76
2021/06/29 00:20:54;;;;;;;2.70;1.10;;;;;;;;;;415760;23;44927;-76
2021/06/29 00:21:06;;;;;;;2.17;1.00;;;;;;;;;;414905;23;68383;-75
2021/06/29 00:21:19;;;;;;;2.28;1.10;;;;;;;;;;415786;23;46881;-76
2021/06/29 00:21:31;;;;;;;3.20;1.30;;;;;;;;;;414969;23;69534;-76
2021/06/29 00:21:47;;;;;;;3.28;1.40;;;;;;;;;;412946;23;114138;-75
2021/06/29 00:21:59;;;;;;;2.92;1.27;;;;;;;;;;414689;23;69993;-76
2021/06/29 00:22:11;;;;;;;2.42;1.08;;;;;;;;;;415851;23;44990;-77
2021/06/29 00:22:24;;;;;;;2.72;1.10;;;;;;;;;;413975;23;47180;-76
2021/06/29 00:22:36;;;;;;;2.65;1.20;;;;;;;;;;413377;23;69972;-77
2021/06/29 00:22:48;;;;;;;2.08;1.15;;;;;;;;;;414098;23;46588;-77
2021/06/29 00:23:02;;;;;;;2.35;1.05;;;;;;;;;;413246;23;68846;-76
2021/06/29 00:23:14;;;;;;;2.80;0.90;;;;;;;;;;413102;23;69024;-77
2021/06/29 00:23:27;;;;;;;2.92;0.90;;;;;;;;;;414280;23;46523;-77
2021/06/29 00:23:39;;;;;;;2.38;1.00;;;;;;;;;;413263;23;67927;-76
2021/06/29 00:23:51;;;;;;;3.75;1.30;;;;;;;;;;414023;23;45659;-74
2021/06/29 00:24:04;;;;;;;4.78;1.50;;;;;;;;;;413160;23;69010;-77
2021/06/29 00:24:16;;;;;;;4.46;1.48;;;;;;;;;;414162;23;44871;-76
2021/06/29 00:24:28;;;;;;;3.03;1.23;;;;;;;;;;414204;23;46093;-77
2021/06/29 00:24:41;;;;;;;2.20;1.00;;;;;;;;;;414184;23;47124;-76
2021/06/29 00:24:53;;;;;;;2.83;1.10;;;;;;;;;;413218;23;68787;-76
2021/06/29 00:25:06;;;;;;;4.10;1.10;;;;;;;;;;414109;23;47173;-76
2021/06/29 00:25:18;;;;;;;3.10;1.00;;;;;;;;;;413094;23;67835;-76
2021/06/29 00:25:30;;;;;;;2.60;1.00;;;;;;;;;;414266;23;47209;-77
2021/06/29 00:25:43;;;;;;;1.30;1.00;;;;;;;;;;413089;23;68845;-76
2021/06/29 00:25:55;;;;;;;1.65;0.93;;;;;;;;;;413931;23;46794;-77
2021/06/29 00:26:08;;;;;;;1.92;1.00;;;;;;;;;;413133;23;68711;-75
2021/06/29 00:26:21;;;;;;;4.38;1.13;;;;;;;;;;412923;23;67807;-75
2021/06/29 00:26:33;;;;;;;4.75;1.10;;;;;;;;;;413738;23;47237;-76
2021/06/29 00:26:45;;;;;;;4.75;1.10;;;;;;;;;;412726;23;70291;-76
2021/06/29 00:26:58;;;;;;;2.90;1.00;;;;;;;;;;413993;23;45154;-74
2021/06/29 00:27:10;;;;;;;2.28;1.00;;;;;;;;;;413930;23;44958;-77
2021/06/29 00:27:22;;;;;;;2.97;1.20;;;;;;;;;;412852;23;68955;-78
2021/06/29 00:27:34;;;;;;;3.25;1.17;;;;;;;;;;414056;23;44789;-76
2021/06/29 00:27:47;;;;;;;2.72;1.17;;;;;;;;;;414141;23;47203;-74
2021/06/29 00:27:59;;;;;;;3.42;1.15;;;;;;;;;;413255;23;68942;-75
2021/06/29 00:28:12;;;;;;;3.30;1.27;;;;;;;;;;413980;23;47169;-73
2021/06/29 00:28:24;;;;;;;3.33;1.23;;;;;;;;;;413102;23;67876;-75
2021/06/29 00:28:37;;;;;;;2.20;1.13;;;;;;;;;;414259;23;45399;-73
2021/06/29 00:28:50;;;;;;;2.08;1.10;;;;;;;;;;412335;23;91885;-75
2021/06/29 00:29:02;;;;;;;2.22;1.08;;;;;;;;;;414050;23;46555;-74
2021/06/29 00:29:15;;;;;;;2.00;0.93;;;;;;;;;;413056;23;69965;-72
2021/06/29 00:29:27;;;;;;;1.60;0.90;;;;;;;;;;414024;23;47076;-72
2021/06/29 00:29:39;;;;;;;1.35;0.90;;;;;;;;;;413018;23;68336;-74
2021/06/29 00:29:52;;;;;;;2.17;1.05;;;;;;;;;;414068;23;46279;-74
2021/06/29 00:30:04;;;;;;;2.58;1.17;;;;;;;;;;413998;23;46827;-74
2021/06/29 00:30:17;;;;;;;3.03;1.20;;;;;;;;;;413252;23;69676;-75
2021/06/29 00:30:30;;;;;;;3.38;1.30;;;;;;;;;;412954;23;68976;-73
2021/06/29 00:30:42;;;;;;;3.42;1.17;;;;;;;;;;414181;23;45611;-74
2021/06/29 00:30:54;;;;;;;4.18;1.27;;;;;;;;;;413092;23;68801;-75
2021/06/29 00:31:06;;;;;;;3.78;1.20;;;;;;;;;;414108;23;46558;-75
2021/06/29 00:31:19;;;;;;;2.58;1.13;;;;;;;;;;413871;23;46672;-77
2021/06/29 00:31:32;;;;;;;2.33;1.00;;;;;;;;;;412258;23;91973;-74
2021/06/29 00:31:45;;;;;;;2.55;1.10;;;;;;;;;;414271;23;47265;-76
2021/06/29 00:31:57;;;;;;;3.03;1.20;;;;;;;;;;413097;23;68877;-74
2021/06/29 00:32:10;;;;;;;4.47;1.35;;;;;;;;;;413186;23;68657;-75
2021/06/29 00:32:22;;;;;;;3.75;1.30;;;;;;;;;;414239;23;44852;-75
2021/06/29 00:32:35;;;;;;;2.83;1.40;;;;;;;;;;413168;23;69977;-74
2021/06/29 00:32:47;;;;;;;4.47;1.42;;;;;;;;;;413004;23;69987;-75
2021/06/29 00:33:00;;;;;;;3.40;1.15;;;;;;;;;;414307;23;44927;-76
2021/06/29 00:33:12;;;;;;;1.63;1.05;;;;;;;;;;413209;23;67876;-71
2021/06/29 00:33:25;;;;;;;1.38;1.00;;;;;;;;;;414011;23;45236;-75
2021/06/29 00:33:37;;;;;;;4.20;1.48;;;;;;;;;;413023;23;69098;-75
2021/06/29 00:33:50;;;;;;;4.82;1.50;;;;;;;;;;414026;23;44803;-74
2021/06/29 00:34:02;;;;;;;2.63;1.10;;;;;;;;;;412878;23;70103;-75
2021/06/29 00:34:14;;;;;;;2.63;1.15;;;;;;;;;;411874;23;47145;-74
2021/06/29 00:34:27;;;;;;;3.20;1.23;;;;;;;;;;410897;23;69987;-75
2021/06/29 00:34:39;;;;;;;2.70;1.30;;;;;;;;;;411868;23;47156;-73
2021/06/29 00:34:51;;;;;;;2.05;1.30;;;;;;;;;;411899;23;46786;-74
2021/06/29 00:35:04;;;;;;;2.08;1.00;;;;;;;;;;410998;23;68801;-75
2021/06/29 00:35:17;;;;;;;2.20;0.90;;;;;;;;;;411209;23;70287;-75
2021/06/29 00:35:29;;;;;;;1.98;1.02;;;;;;;;;;411120;23;68859;-75
2021/06/29 00:35:42;;;;;;;3.63;1.10;;;;;;;;;;412146;23;45381;-76
2021/06/29 00:35:54;;;;;;;3.72;1.20;;;;;;;;;;412159;23;45541;-73
2021/06/29 00:36:06;;;;;;;2.53;1.00;;;;;;;;;;411042;23;69635;-75
2021/06/29 00:36:19;;;;;;;2.33;1.00;;;;;;;;;;413494;23;46139;-75
2021/06/29 00:36:31;;;;;;;2.40;0.98;;;;;;;;;;412924;23;68891;-75
2021/06/29 00:36:45;;;;;;;1.60;1.00;;;;;;;;;;413947;23;46030;-75
2021/06/29 00:36:57;;;;;;;1.88;1.10;;;;;;;;;;411916;23;91997;-75
2021/06/29 00:37:09;;;;;;;1.90;1.05;;;;;;;;;;413852;23;45998;-73
2021/06/29 00:37:22;;;;;;;1.88;1.00;;;;;;;;;;413856;23;45965;-75
2021/06/29 00:37:35;;;;;;;2.30;1.04;;;;;;;;;;413887;23;46949;-75
2021/06/29 00:37:47;;;;;;;2.80;1.20;;;;;;;;;;414061;23;45652;-73
2021/06/29 00:37:59;;;;;;;3.08;1.30;;;;;;;;;;414176;23;46399;-75
2021/06/29 00:38:11;;;;;;;3.08;1.20;;;;;;;;;;413247;23;69180;-71
2021/06/29 00:38:24;;;;;;;2.25;1.10;;;;;;;;;;414100;23;46590;-75
2021/06/29 00:38:36;;;;;;;1.23;1.00;;;;;;;;;;414148;23;46096;-75
2021/06/29 00:38:49;;;;;;;1.73;1.02;;;;;;;;;;411844;23;91894;-75
2021/06/29 00:39:02;;;;;;;1.85;1.00;;;;;;;;;;413957;23;46636;-76
2021/06/29 00:39:14;;;;;;;1.90;1.10;;;;;;;;;;412842;23;68310;-75
2021/06/29 00:39:27;;;;;;;2.20;1.10;;;;;;;;;;413793;23;46650;-75
2021/06/29 00:39:39;;;;;;;3.08;1.20;;;;;;;;;;412834;23;68938;-75
2021/06/29 00:39:52;;;;;;;4.57;1.20;;;;;;;;;;413798;23;46101;-73
2021/06/29 00:40:06;;;;;;;3.72;1.05;;;;;;;;;;412822;23;69057;-75
2021/06/29 00:40:18;;;;;;;3.83;1.30;;;;;;;;;;411836;23;92009;-75
2021/06/29 00:40:31;;;;;;;3.45;1.20;;;;;;;;;;413836;23;46630;-74
2021/06/29 00:40:44;;;;;;;2.22;1.08;;;;;;;;;;411882;23;92974;-75
2021/06/29 00:40:56;;;;;;;2.10;1.00;;;;;;;;;;414073;23;47499;-74
2021/06/29 00:41:08;;;;;;;2.26;1.06;;;;;;;;;;414053;23;44926;-74
2021/06/29 00:41:21;;;;;;;2.58;1.10;;;;;;;;;;414073;23;46015;-75
2021/06/29 00:41:33;;;;;;;3.03;1.10;;;;;;;;;;414269;23;45024;-75
2021/06/29 00:41:45;;;;;;;3.47;1.10;;;;;;;;;;413140;23;69012;-75
2021/06/29 00:41:57;;;;;;;3.35;1.27;;;;;;;;;;414138;23;46961;-73
2021/06/29 00:42:10;;;;;;;2.97;1.20;;;;;;;;;;413975;23;47478;-75
2021/06/29 00:42:22;;;;;;;2.22;1.20;;;;;;;;;;413164;23;70003;-75
2021/06/29 00:42:35;;;;;;;1.75;1.10;;;;;;;;;;413873;23;46630;-75
2021/06/29 00:42:47;;;;;;;1.70;1.10;;;;;;;;;;413218;23;70111;-75
2021/06/29 00:42:59;;;;;;;1.45;1.08;;;;;;;;;;414043;23;47161;-75
2021/06/29 00:43:12;;;;;;;1.75;1.00;;;;;;;;;;413062;23;69060;-74
2021/06/29 00:43:24;;;;;;;2.13;1.00;;;;;;;;;;414010;23;45986;-74
2021/06/29 00:43:37;;;;;;;1.70;1.00;;;;;;;;;;413431;23;69111;-73
2021/06/29 00:43:50;;;;;;;1.80;1.15;;;;;;;;;;413980;23;46136;-74
2021/06/29 00:44:02;;;;;;;1.92;1.13;;;;;;;;;;412889;23;70002;-75
2021/06/29 00:44:21;;;;;;;1.92;1.00;;;;;;;;;;413860;23;45734;-74
2021/06/29 00:44:33;;;;;;;1.85;1.10;;;;;;;;;;410054;23;138813;-75
2021/06/29 00:44:46;;;;;;;2.17;1.10;;;;;;;;;;414000;23;45286;-75
2021/06/29 00:44:59;;;;;;;2.40;1.05;;;;;;;;;;413024;23;68574;-75
2021/06/29 00:45:11;;;;;;;3.25;1.20;;;;;;;;;;413918;23;45000;-75
2021/06/29 00:45:24;;;;;;;2.80;1.10;;;;;;;;;;412825;23;70336;-75
2021/06/29 00:45:36;;;;;;;2.38;1.10;;;;;;;;;;413046;23;70449;-74
2021/06/29 00:45:48;;;;;;;2.70;1.00;;;;;;;;;;413777;23;44969;-76
2021/06/29 00:46:01;;;;;;;2.78;1.10;;;;;;;;;;414032;23;46117;-72
2021/06/29 00:46:14;;;;;;;2.50;1.10;;;;;;;;;;413290;23;68861;-74
2021/06/29 00:46:26;;;;;;;2.92;1.10;;;;;;;;;;413091;23;67879;-76
2021/06/29 00:46:39;;;;;;;3.17;1.15;;;;;;;;;;413038;23;70069;-74
2021/06/29 00:46:53;;;;;;;3.03;1.10;;;;;;;;;;413946;23;44844;-74
2021/06/29 00:47:09;;;;;;;2.72;1.17;;;;;;;;;;411153;23;116204;-74
2021/06/29 00:47:21;;;;;;;3.25;1.30;;;;;;;;;;410922;23;115924;-72
2021/06/29 00:47:33;;;;;;;2.65;1.23;;;;;;;;;;412887;23;69817;-75
2021/06/29 00:47:46;;;;;;;2.25;0.90;;;;;;;;;;413696;23;45413;-76
2021/06/29 00:47:58;;;;;;;1.88;1.08;;;;;;;;;;413903;23;45402;-70
2021/06/29 00:48:13;;;;;;;1.60;1.20;;;;;;;;;;410292;23;137917;-74
2021/06/29 00:48:25;;;;;;;2.13;1.15;;;;;;;;;;412093;23;46144;-75
2021/06/29 00:48:38;;;;;;;2.00;1.10;;;;;;;;;;412725;23;45689;-74
2021/06/29 00:48:51;;;;;;;2.08;1.17;;;;;;;;;;412053;23;91887;-75
2021/06/29 00:49:03;;;;;;;1.92;1.15;;;;;;;;;;413823;23;45664;-75
2021/06/29 00:49:16;;;;;;;3.28;1.17;;;;;;;;;;413026;23;68941;-73
2021/06/29 00:49:29;;;;;;;3.85;1.08;;;;;;;;;;412868;23;68984;-71
2021/06/29 00:49:41;;;;;;;3.47;1.40;;;;;;;;;;414314;23;45000;-75
2021/06/29 00:49:54;;;;;;;2.78;1.50;;;;;;;;;;413090;23;67851;-70
2021/06/29 00:50:07;;;;;;;4.85;1.50;;;;;;;;;;413876;23;44998;-71
2021/06/29 00:50:19;;;;;;;4.85;1.05;;;;;;;;;;412990;23;68469;-71
2021/06/29 00:50:31;;;;;;;2.92;1.10;;;;;;;;;;413039;23;68880;-76
2021/06/29 00:50:44;;;;;;;3.10;1.10;;;;;;;;;;413838;23;45866;-71
2021/06/29 00:50:56;;;;;;;3.35;1.15;;;;;;;;;;412980;23;70072;-73
2021/06/29 00:51:11;;;;;;;4.10;1.30;;;;;;;;;;413862;23;46038;-75
2021/06/29 00:51:23;;;;;;;3.78;1.40;;;;;;;;;;409223;23;114922;-69
2021/06/29 00:51:36;;;;;;;3.10;1.38;;;;;;;;;;412116;23;44828;-75
2021/06/29 00:51:48;;;;;;;3.15;1.27;;;;;;;;;;410844;23;68928;-70
2021/06/29 00:52:01;;;;;;;2.65;1.20;;;;;;;;;;407227;24;69149;-72
2021/06/29 00:52:14;;;;;;;2.40;1.05;;;;;;;;;;408189;24;47203;-73
2021/06/29 00:52:26;;;;;;;2.05;1.10;;;;;;;;;;407271;24;68835;-74
2021/06/29 00:52:40;;;;;;;1.75;1.10;;;;;;;;;;407147;24;70053;-75
2021/06/29 00:52:52;;;;;;;3.80;1.10;;;;;;;;;;406956;24;68744;-74
2021/06/29 00:53:04;;;;;;;4.15;1.20;;;;;;;;;;407263;24;70387;-75
2021/06/29 00:53:17;;;;;;;3.72;1.30;;;;;;;;;;408132;24;44914;-75
2021/06/29 00:53:29;;;;;;;2.76;1.20;;;;;;;;;;408104;24;47479;-76
2021/06/29 00:53:42;;;;;;;2.55;1.10;;;;;;;;;;408114;24;45530;-75
2021/06/29 00:53:54;;;;;;;2.10;1.10;;;;;;;;;;409401;24;68308;-75
2021/06/29 00:54:06;;;;;;;2.97;1.13;;;;;;;;;;412204;23;46021;-75
2021/06/29 00:54:19;;;;;;;3.20;1.10;;;;;;;;;;412083;23;47272;-72
2021/06/29 00:54:34;;;;;;;2.20;1.10;;;;;;;;;;411197;23;68374;-75
2021/06/29 00:54:46;;;;;;;1.90;1.00;;;;;;;;;;409011;23;114738;-75
2021/06/29 00:54:59;;;;;;;2.42;1.05;;;;;;;;;;412127;23;44974;-75
2021/06/29 00:55:12;;;;;;;3.33;1.20;;;;;;;;;;411081;23;69910;-76
2021/06/29 00:55:24;;;;;;;4.25;1.30;;;;;;;;;;411214;23;67762;-75
2021/06/29 00:55:37;;;;;;;4.57;1.20;;;;;;;;;;411012;23;69035;-76
2021/06/29 00:55:50;;;;;;;3.28;1.00;;;;;;;;;;410955;23;70054;-76
2021/06/29 00:56:02;;;;;;;2.80;1.17;;;;;;;;;;410127;24;47232;-72
2021/06/29 00:56:15;;;;;;;2.67;1.30;;;;;;;;;;409141;24;69952;-75
2021/06/29 00:56:27;;;;;;;2.97;1.30;;;;;;;;;;410100;24;45430;-76
2021/06/29 00:56:40;;;;;;;4.25;1.40;;;;;;;;;;409113;24;69085;-76
2021/06/29 00:56:52;;;;;;;3.22;1.40;;;;;;;;;;409203;24;68525;-75
2021/06/29 00:57:06;;;;;;;3.00;1.25;;;;;;;;;;410247;23;47502;-75
2021/06/29 00:57:19;;;;;;;3.53;1.23;;;;;;;;;;408365;23;92702;-74
2021/06/29 00:57:33;;;;;;;3.05;1.30;;;;;;;;;;409315;23;68787;-76
2021/06/29 00:57:50;;;;;;;2.22;1.10;;;;;;;;;;408255;23;91968;-75
2021/06/29 00:58:06;;;;;;;2.20;1.00;;;;;;;;;;408304;23;137830;-76
2021/06/29 00:58:19;;;;;;;2.78;1.23;;;;;;;;;;409208;23;115973;-76
2021/06/29 00:58:32;;;;;;;4.55;1.70;;;;;;;;;;410220;23;91295;-74
2021/06/29 00:58:47;;;;;;;4.18;1.60;;;;;;;;;;409141;24;68994;-76
2021/06/29 00:59:00;;;;;;;3.17;1.02;;;;;;;;;;407071;24;114815;-74
2021/06/29 00:59:12;;;;;;;3.28;1.10;;;;;;;;;;409938;24;47243;-74
2021/06/29 00:59:24;;;;;;;2.35;1.10;;;;;;;;;;408946;24;70064;-73
2021/06/29 00:59:37;;;;;;;1.63;1.08;;;;;;;;;;409924;24;47221;-76
2021/06/29 00:59:50;;;;;;;2.20;1.05;;;;;;;;;;409057;24;68953;-76
2021/06/29 01:00:04;;;;;;;2.85;1.20;;;;;;;;;;408970;24;67869;-73
2021/06/29 01:00:17;;;;;;;2.38;1.10;;;;;;;;;;408130;24;91347;-75
2021/06/29 01:00:29;;;;;;;2.78;1.17;;;;;;;;;;409033;24;67869;-76
2021/06/29 01:00:42;;;;;;;2.63;1.20;;;;;;;;;;410256;23;45982;-76
2021/06/29 01:00:55;;;;;;;9.40;1.38;;;;;;;;;;410824;23;70094;-76
2021/06/29 01:01:07;;;;;;;9.32;1.40;;;;;;;;;;411190;23;69042;-76
2021/06/29 01:01:20;;;;;;;6.72;1.52;;;;;;;;;;411854;23;46197;-76
2021/06/29 01:01:32;;;;;;;2.42;1.40;;;;;;;;;;411879;23;45024;-73
2021/06/29 01:01:44;;;;;;;3.33;1.30;;;;;;;;;;410960;23;67867;-74
2021/06/29 01:01:57;;;;;;;4.65;1.30;;;;;;;;;;412139;23;45475;-76
2021/06/29 01:02:10;;;;;;;4.28;1.33;;;;;;;;;;410977;23;68956;-74
2021/06/29 01:02:22;;;;;;;2.22;1.20;;;;;;;;;;409028;24;70168;-75
2021/06/29 01:02:35;;;;;;;1.52;1.10;;;;;;;;;;410156;24;46233;-75
2021/06/29 01:02:47;;;;;;;2.72;1.25;;;;;;;;;;410095;24;45945;-73
2021/06/29 01:02:59;;;;;;;3.13;1.38;;;;;;;;;;409409;24;68986;-75
2021/06/29 01:03:12;;;;;;;3.35;1.40;;;;;;;;;;409979;24;45667;-76
2021/06/29 01:03:24;;;;;;;2.88;1.30;;;;;;;;;;409862;24;46091;-75
2021/06/29 01:03:36;;;;;;;3.88;1.27;;;;;;;;;;410033;24;45488;-73
2021/06/29 01:03:49;;;;;;;3.35;1.20;;;;;;;;;;409016;24;68953;-73
2021/06/29 01:04:01;;;;;;;3.28;1.30;;;;;;;;;;409984;24;45383;-75
2021/06/29 01:04:13;;;;;;;2.25;1.30;;;;;;;;;;410139;24;45998;-74
2021/06/29 01:04:26;;;;;;;2.38;1.30;;;;;;;;;;408376;24;68540;-76
2021/06/29 01:04:39;;;;;;;2.05;1.20;;;;;;;;;;410106;24;46115;-75
2021/06/29 01:04:51;;;;;;;3.25;1.35;;;;;;;;;;409208;24;68669;-75
2021/06/29 01:05:04;;;;;;;2.72;1.27;;;;;;;;;;409177;24;70183;-75
2021/06/29 01:05:17;;;;;;;2.13;1.17;;;;;;;;;;409276;24;68937;-76
2021/06/29 01:05:29;;;;;;;2.70;1.20;;;;;;;;;;409391;24;68913;-75
2021/06/29 01:05:42;;;;;;;3.25;1.15;;;;;;;;;;410222;24;44851;-75
2021/06/29 01:05:55;;;;;;;3.70;1.20;;;;;;;;;;409201;24;68580;-74
2021/06/29 01:06:08;;;;;;;3.33;1.20;;;;;;;;;;409279;24;68205;-76
2021/06/29 01:06:20;;;;;;;3.17;1.20;;;;;;;;;;409132;24;67729;-75
2021/06/29 01:06:33;;;;;;;2.22;1.10;;;;;;;;;;411900;23;45599;-74
2021/06/29 01:06:46;;;;;;;3.17;1.20;;;;;;;;;;410742;23;68538;-72
2021/06/29 01:06:58;;;;;;;3.58;1.20;;;;;;;;;;410958;23;70123;-76
2021/06/29 01:07:12;;;;;;;3.67;1.25;;;;;;;;;;410989;23;68671;-75
2021/06/29 01:07:24;;;;;;;3.22;1.25;;;;;;;;;;410841;23;68942;-75
2021/06/29 01:07:37;;;;;;;2.88;1.10;;;;;;;;;;411019;23;70839;-75
2021/06/29 01:07:49;;;;;;;4.38;1.27;;;;;;;;;;411960;23;46073;-75
2021/06/29 01:08:01;;;;;;;4.00;1.34;;;;;;;;;;411926;23;47718;-74
2021/06/29 01:08:14;;;;;;;2.80;1.45;;;;;;;;;;412158;23;45956;-76
2021/06/29 01:08:26;;;;;;;2.65;1.30;;;;;;;;;;410892;23;70025;-75
2021/06/29 01:08:39;;;;;;;2.00;1.10;;;;;;;;;;410041;23;46004;-75
2021/06/29 01:08:51;;;;;;;1.73;1.08;;;;;;;;;;409268;23;68814;-74
2021/06/29 01:09:04;;;;;;;1.98;1.13;;;;;;;;;;410399;23;45999;-75
2021/06/29 01:09:16;;;;;;;1.45;1.20;;;;;;;;;;409206;24;68554;-73
2021/06/29 01:09:29;;;;;;;1.30;1.17;;;;;;;;;;409995;24;45992;-75
2021/06/29 01:09:41;;;;;;;1.27;1.10;;;;;;;;;;409302;24;69236;-75
2021/06/29 01:09:53;;;;;;;1.35;1.10;;;;;;;;;;410260;24;45703;-74
2021/06/29 01:10:06;;;;;;;2.20;1.10;;;;;;;;;;409959;24;46648;-75
2021/06/29 01:10:19;;;;;;;3.03;1.17;;;;;;;;;;409040;24;67843;-74
2021/06/29 01:10:31;;;;;;;3.05;1.20;;;;;;;;;;409910;24;45014;-76
2021/06/29 01:10:43;;;;;;;3.30;1.30;;;;;;;;;;409858;24;46147;-75
2021/06/29 01:10:56;;;;;;;2.58;1.20;;;;;;;;;;410310;24;45977;-75
2021/06/29 01:11:14;;;;;;;2.50;1.20;;;;;;;;;;409916;24;45990;-75
2021/06/29 01:11:26;;;;;;;2.65;1.20;;;;;;;;;;408206;23;138604;-75
2021/06/29 01:11:39;;;;;;;2.58;1.17;;;;;;;;;;412018;23;45305;-75
2021/06/29 01:11:51;;;;;;;2.25;1.30;;;;;;;;;;411127;23;70082;-75
2021/06/29 01:12:04;;;;;;;3.00;1.30;;;;;;;;;;411753;23;46105;-74
2021/06/29 01:12:16;;;;;;;3.28;1.20;;;;;;;;;;411111;23;68667;-75
2021/06/29 01:12:28;;;;;;;3.30;1.20;;;;;;;;;;411954;23;46628;-75
2021/06/29 01:12:41;;;;;;;3.25;1.15;;;;;;;;;;411097;23;68243;-75
2021/06/29 01:12:53;;;;;;;3.20;1.20;;;;;;;;;;411826;23;45525;-75
2021/06/29 01:13:06;;;;;;;3.45;1.23;;;;;;;;;;410980;23;70458;-75
2021/06/29 01:13:33;;;;;;;3.40;1.20;;;;;;;;;;412096;23;46032;-75
2021/06/29 01:13:46;;;;;;;2.25;1.17;;;;;;;;;;408174;23;137379;-74
2021/06/29 01:14:08;;;;;;;3.17;1.30;;;;;;;;;;411143;23;67880;-76
2021/06/29 01:14:20;;;;;;;2.10;1.33;;;;;;;;;;408170;23;136672;-75
2021/06/29 01:14:33;;;;;;;1.73;1.27;;;;;;;;;;411891;23;45606;-75
2021/06/29 01:14:45;;;;;;;2.47;1.33;;;;;;;;;;409337;23;68392;-75
2021/06/29 01:14:57;;;;;;;4.45;1.42;;;;;;;;;;410434;23;45044;-76
2021/06/29 01:15:10;;;;;;;3.88;1.40;;;;;;;;;;410264;23;45300;-72
2021/06/29 01:15:23;;;;;;;2.67;1.33;;;;;;;;;;409284;24;69066;-74
2021/06/29 01:15:35;;;;;;;3.13;1.40;;;;;;;;;;409395;24;68856;-73
2021/06/29 01:15:48;;;;;;;4.05;1.50;;;;;;;;;;409436;24;69037;-75
2021/06/29 01:16:02;;;;;;;2.70;1.30;;;;;;;;;;410157;24;45480;-76
2021/06/29 01:16:15;;;;;;;1.98;1.20;;;;;;;;;;407452;23;114238;-76
2021/06/29 01:16:28;;;;;;;1.98;1.30;;;;;;;;;;409433;23;68688;-75
2021/06/29 01:16:41;;;;;;;1.92;1.25;;;;;;;;;;409269;23;68932;-74
2021/06/29 01:16:54;;;;;;;1.40;1.20;;;;;;;;;;410800;23;68413;-76
2021/06/29 01:17:07;;;;;;;1.63;1.20;;;;;;;;;;412202;23;47280;-76
2021/06/29 01:17:22;;;;;;;2.25;1.20;;;;;;;;;;409556;23;93473;-74
2021/06/29 01:17:34;;;;;;;2.35;1.10;;;;;;;;;;407668;23;115878;-76
2021/06/29 01:17:47;;;;;;;2.35;1.10;;;;;;;;;;410164;23;45726;-76
2021/06/29 01:18:01;;;;;;;2.47;1.20;;;;;;;;;;407108;24;66506;-76